sensor_id;sensor_type;location;lat;lon;timestamp;P1;durP1;ratioP1;P2;durP2;ratioP2
65096;SDS011;51686;46.758;4.356;2022-12-07T00:18:04;8.77;;;4.00;;
65096;SDS011;51686;46.758;4.356;2022-12-07T00:39:22;8.83;;;4.30;;
65096;SDS011;51686;46.758;4.356;2022-12-07T00:48:46;9.05;;;4.47;;
65096;SDS011;51686;46.758;4.356;2022-12-07T00:59:53;8.93;;;4.28;;
65096;SDS011;51686;46.758;4.356;2022-12-07T01:04:01;8.68;;;4.20;;
65096;SDS011;51686;46.758;4.356;2022-12-07T01:15:22;8.68;;;4.15;;
65096;SDS011;51686;46.758;4.356;2022-12-07T01:19:07;8.85;;;4.10;;
65096;SDS011;51686;46.758;4.356;2022-12-07T02:34:02;10.00;;;4.80;;
65096;SDS011;51686;46.758;4.356;2022-12-07T02:38:14;10.32;;;4.90;;
65096;SDS011;51686;46.758;4.356;2022-12-07T02:48:56;9.13;;;4.57;;
65096;SDS011;51686;46.758;4.356;2022-12-07T03:21:11;9.88;;;5.00;;
65096;SDS011;51686;46.758;4.356;2022-12-07T03:33:04;8.73;;;4.60;;
65096;SDS011;51686;46.758;4.356;2022-12-07T03:41:06;9.90;;;4.78;;
65096;SDS011;51686;46.758;4.356;2022-12-07T03:44:45;8.93;;;4.53;;
65096;SDS011;51686;46.758;4.356;2022-12-07T03:48:37;9.88;;;4.90;;
65096;SDS011;51686;46.758;4.356;2022-12-07T03:56:33;9.55;;;4.70;;
65096;SDS011;51686;46.758;4.356;2022-12-07T04:04:57;10.10;;;5.03;;
65096;SDS011;51686;46.758;4.356;2022-12-07T04:12:18;9.82;;;5.00;;
65096;SDS011;51686;46.758;4.356;2022-12-07T04:16:34;9.57;;;4.93;;
65096;SDS011;51686;46.758;4.356;2022-12-07T04:20:12;8.90;;;4.45;;
65096;SDS011;51686;46.758;4.356;2022-12-07T04:32:39;9.18;;;4.32;;
65096;SDS011;51686;46.758;4.356;2022-12-07T04:44:42;9.35;;;4.60;;
65096;SDS011;51686;46.758;4.356;2022-12-07T04:55:39;9.60;;;5.00;;
65096;SDS011;51686;46.758;4.356;2022-12-07T05:28:05;10.55;;;5.30;;
65096;SDS011;51686;46.758;4.356;2022-12-07T05:38:27;10.50;;;5.38;;
65096;SDS011;51686;46.758;4.356;2022-12-07T05:42:31;11.88;;;6.22;;
65096;SDS011;51686;46.758;4.356;2022-12-07T05:54:25;11.38;;;5.85;;
65096;SDS011;51686;46.758;4.356;2022-12-07T06:02:10;10.95;;;5.88;;
65096;SDS011;51686;46.758;4.356;2022-12-07T06:05:53;10.88;;;5.93;;
65096;SDS011;51686;46.758;4.356;2022-12-07T06:29:01;11.23;;;6.40;;
65096;SDS011;51686;46.758;4.356;2022-12-07T06:35:52;13.90;;;7.10;;
65096;SDS011;51686;46.758;4.356;2022-12-07T06:38:39;12.80;;;6.97;;
65096;SDS011;51686;46.758;4.356;2022-12-07T06:41:26;13.85;;;8.05;;
65096;SDS011;51686;46.758;4.356;2022-12-07T06:44:12;13.60;;;6.95;;
65096;SDS011;51686;46.758;4.356;2022-12-07T06:46:59;13.38;;;7.07;;
65096;SDS011;51686;46.758;4.356;2022-12-07T06:50:06;13.32;;;6.88;;
65096;SDS011;51686;46.758;4.356;2022-12-07T06:52:54;12.55;;;6.35;;
65096;SDS011;51686;46.758;4.356;2022-12-07T06:55:41;12.18;;;6.68;;
65096;SDS011;51686;46.758;4.356;2022-12-07T06:58:27;13.00;;;7.25;;
65096;SDS011;51686;46.758;4.356;2022-12-07T07:01:16;13.90;;;6.90;;
65096;SDS011;51686;46.758;4.356;2022-12-07T07:04:06;11.90;;;6.85;;
65096;SDS011;51686;46.758;4.356;2022-12-07T07:06:53;12.38;;;6.70;;
65096;SDS011;51686;46.758;4.356;2022-12-07T07:09:45;12.57;;;7.05;;
65096;SDS011;51686;46.758;4.356;2022-12-07T07:12:32;12.77;;;6.93;;
65096;SDS011;51686;46.758;4.356;2022-12-07T07:15:19;12.73;;;7.03;;
65096;SDS011;51686;46.758;4.356;2022-12-07T07:18:06;12.32;;;6.72;;
65096;SDS011;51686;46.758;4.356;2022-12-07T07:20:53;11.00;;;6.15;;
65096;SDS011;51686;46.758;4.356;2022-12-07T07:23:41;12.38;;;6.22;;
65096;SDS011;51686;46.758;4.356;2022-12-07T07:26:28;13.23;;;7.15;;
65096;SDS011;51686;46.758;4.356;2022-12-07T07:29:14;12.68;;;6.55;;
65096;SDS011;51686;46.758;4.356;2022-12-07T07:32:04;12.25;;;6.90;;
65096;SDS011;51686;46.758;4.356;2022-12-07T07:34:52;13.15;;;6.75;;
65096;SDS011;51686;46.758;4.356;2022-12-07T07:37:39;11.93;;;6.60;;
65096;SDS011;51686;46.758;4.356;2022-12-07T07:40:27;12.15;;;6.53;;
65096;SDS011;51686;46.758;4.356;2022-12-07T07:43:15;12.88;;;6.97;;
65096;SDS011;51686;46.758;4.356;2022-12-07T07:46:02;13.60;;;7.10;;
65096;SDS011;51686;46.758;4.356;2022-12-07T07:48:49;11.63;;;6.53;;
65096;SDS011;51686;46.758;4.356;2022-12-07T07:51:37;13.10;;;6.82;;
65096;SDS011;51686;46.758;4.356;2022-12-07T07:54:27;13.32;;;6.88;;
65096;SDS011;51686;46.758;4.356;2022-12-07T07:57:19;12.00;;;6.47;;
65096;SDS011;51686;46.758;4.356;2022-12-07T08:00:09;12.23;;;6.47;;
65096;SDS011;51686;46.758;4.356;2022-12-07T08:02:57;11.73;;;6.35;;
65096;SDS011;51686;46.758;4.356;2022-12-07T08:05:44;12.68;;;6.82;;
65096;SDS011;51686;46.758;4.356;2022-12-07T08:08:31;12.65;;;6.78;;
65096;SDS011;51686;46.758;4.356;2022-12-07T08:11:18;12.40;;;6.95;;
65096;SDS011;51686;46.758;4.356;2022-12-07T08:14:05;12.43;;;6.50;;
65096;SDS011;51686;46.758;4.356;2022-12-07T08:16:52;12.90;;;7.28;;
65096;SDS011;51686;46.758;4.356;2022-12-07T08:19:39;12.90;;;6.85;;
65096;SDS011;51686;46.758;4.356;2022-12-07T08:22:26;11.60;;;6.30;;
65096;SDS011;51686;46.758;4.356;2022-12-07T08:25:13;11.38;;;6.20;;
65096;SDS011;51686;46.758;4.356;2022-12-07T08:28:00;11.38;;;6.05;;
65096;SDS011;51686;46.758;4.356;2022-12-07T08:30:47;11.65;;;5.93;;
65096;SDS011;51686;46.758;4.356;2022-12-07T08:33:34;12.20;;;6.18;;
65096;SDS011;51686;46.758;4.356;2022-12-07T08:36:21;10.93;;;5.60;;
65096;SDS011;51686;46.758;4.356;2022-12-07T08:39:09;11.52;;;6.40;;
65096;SDS011;51686;46.758;4.356;2022-12-07T08:42:16;11.45;;;5.75;;
65096;SDS011;51686;46.758;4.356;2022-12-07T08:45:04;11.35;;;5.85;;
65096;SDS011;51686;46.758;4.356;2022-12-07T08:48:01;11.55;;;5.82;;
65096;SDS011;51686;46.758;4.356;2022-12-07T08:50:50;11.43;;;5.88;;
65096;SDS011;51686;46.758;4.356;2022-12-07T08:53:37;12.23;;;6.70;;
65096;SDS011;51686;46.758;4.356;2022-12-07T08:56:25;12.82;;;6.78;;
65096;SDS011;51686;46.758;4.356;2022-12-07T08:59:13;11.55;;;5.88;;
65096;SDS011;51686;46.758;4.356;2022-12-07T09:02:01;11.70;;;6.13;;
65096;SDS011;51686;46.758;4.356;2022-12-07T09:04:51;11.63;;;5.93;;
65096;SDS011;51686;46.758;4.356;2022-12-07T09:10:24;12.25;;;6.15;;
65096;SDS011;51686;46.758;4.356;2022-12-07T09:13:12;12.15;;;6.32;;
65096;SDS011;51686;46.758;4.356;2022-12-07T09:15:59;12.27;;;6.28;;
65096;SDS011;51686;46.758;4.356;2022-12-07T09:18:48;11.52;;;6.40;;
65096;SDS011;51686;46.758;4.356;2022-12-07T09:21:35;12.50;;;5.97;;
65096;SDS011;51686;46.758;4.356;2022-12-07T09:24:22;11.77;;;6.35;;
65096;SDS011;51686;46.758;4.356;2022-12-07T09:27:09;12.23;;;6.30;;
65096;SDS011;51686;46.758;4.356;2022-12-07T09:29:59;12.13;;;5.70;;
65096;SDS011;51686;46.758;4.356;2022-12-07T09:32:46;11.48;;;5.88;;
65096;SDS011;51686;46.758;4.356;2022-12-07T09:35:33;12.65;;;6.65;;
65096;SDS011;51686;46.758;4.356;2022-12-07T09:38:20;11.77;;;6.03;;
65096;SDS011;51686;46.758;4.356;2022-12-07T09:41:07;12.45;;;6.40;;
65096;SDS011;51686;46.758;4.356;2022-12-07T09:44:05;11.75;;;6.00;;
65096;SDS011;51686;46.758;4.356;2022-12-07T09:47:03;12.18;;;6.25;;
65096;SDS011;51686;46.758;4.356;2022-12-07T09:49:50;11.48;;;6.10;;
65096;SDS011;51686;46.758;4.356;2022-12-07T09:52:37;12.48;;;5.82;;
65096;SDS011;51686;46.758;4.356;2022-12-07T09:55:26;10.77;;;5.43;;
65096;SDS011;51686;46.758;4.356;2022-12-07T09:58:22;12.45;;;5.95;;
65096;SDS011;51686;46.758;4.356;2022-12-07T10:01:12;11.73;;;5.72;;
65096;SDS011;51686;46.758;4.356;2022-12-07T10:04:08;12.07;;;6.65;;
65096;SDS011;51686;46.758;4.356;2022-12-07T10:06:59;12.60;;;6.20;;
65096;SDS011;51686;46.758;4.356;2022-12-07T10:09:47;11.90;;;6.10;;
65096;SDS011;51686;46.758;4.356;2022-12-07T10:12:54;11.82;;;6.00;;
65096;SDS011;51686;46.758;4.356;2022-12-07T10:15:45;12.17;;;5.70;;
65096;SDS011;51686;46.758;4.356;2022-12-07T10:18:37;11.30;;;5.63;;
65096;SDS011;51686;46.758;4.356;2022-12-07T10:21:27;11.80;;;5.68;;
65096;SDS011;51686;46.758;4.356;2022-12-07T10:24:14;12.25;;;6.40;;
65096;SDS011;51686;46.758;4.356;2022-12-07T10:27:01;11.75;;;6.18;;
65096;SDS011;51686;46.758;4.356;2022-12-07T10:29:50;11.23;;;5.80;;
65096;SDS011;51686;46.758;4.356;2022-12-07T10:35:26;11.25;;;5.80;;
65096;SDS011;51686;46.758;4.356;2022-12-07T10:38:16;11.65;;;5.82;;
65096;SDS011;51686;46.758;4.356;2022-12-07T10:41:04;11.43;;;5.97;;
65096;SDS011;51686;46.758;4.356;2022-12-07T10:43:55;11.95;;;6.25;;
65096;SDS011;51686;46.758;4.356;2022-12-07T10:46:46;13.10;;;6.72;;
65096;SDS011;51686;46.758;4.356;2022-12-07T10:53:01;11.68;;;5.60;;
65096;SDS011;51686;46.758;4.356;2022-12-07T11:11:36;11.73;;;5.97;;
65096;SDS011;51686;46.758;4.356;2022-12-07T11:14:37;11.25;;;5.70;;
65096;SDS011;51686;46.758;4.356;2022-12-07T11:20:35;12.68;;;6.03;;
65096;SDS011;51686;46.758;4.356;2022-12-07T11:23:48;11.27;;;5.55;;
65096;SDS011;51686;46.758;4.356;2022-12-07T11:26:44;12.07;;;6.07;;
65096;SDS011;51686;46.758;4.356;2022-12-07T11:35:30;10.70;;;4.88;;
65096;SDS011;51686;46.758;4.356;2022-12-07T11:38:52;11.82;;;5.80;;
65096;SDS011;51686;46.758;4.356;2022-12-07T11:41:41;13.02;;;5.80;;
65096;SDS011;51686;46.758;4.356;2022-12-07T11:50:55;12.25;;;5.72;;
65096;SDS011;51686;46.758;4.356;2022-12-07T11:53:46;12.02;;;5.57;;
65096;SDS011;51686;46.758;4.356;2022-12-07T11:56:39;12.32;;;5.55;;
65096;SDS011;51686;46.758;4.356;2022-12-07T11:59:29;12.32;;;5.75;;
65096;SDS011;51686;46.758;4.356;2022-12-07T12:02:31;12.52;;;6.38;;
65096;SDS011;51686;46.758;4.356;2022-12-07T12:05:22;13.18;;;6.10;;
65096;SDS011;51686;46.758;4.356;2022-12-07T12:11:30;13.15;;;6.68;;
65096;SDS011;51686;46.758;4.356;2022-12-07T12:21:10;12.38;;;5.80;;
65096;SDS011;51686;46.758;4.356;2022-12-07T12:24:26;12.40;;;6.25;;
65096;SDS011;51686;46.758;4.356;2022-12-07T12:27:27;12.27;;;5.97;;
65096;SDS011;51686;46.758;4.356;2022-12-07T12:30:31;13.13;;;6.40;;
65096;SDS011;51686;46.758;4.356;2022-12-07T12:33:28;13.23;;;6.40;;
65096;SDS011;51686;46.758;4.356;2022-12-07T12:39:31;12.82;;;5.72;;
65096;SDS011;51686;46.758;4.356;2022-12-07T12:42:18;11.02;;;5.35;;
65096;SDS011;51686;46.758;4.356;2022-12-07T12:51:35;11.35;;;5.60;;
65096;SDS011;51686;46.758;4.356;2022-12-07T12:54:30;12.07;;;5.57;;
65096;SDS011;51686;46.758;4.356;2022-12-07T12:57:29;11.35;;;5.50;;
65096;SDS011;51686;46.758;4.356;2022-12-07T13:00:20;11.00;;;5.32;;
65096;SDS011;51686;46.758;4.356;2022-12-07T13:03:20;11.90;;;5.72;;
65096;SDS011;51686;46.758;4.356;2022-12-07T13:09:21;11.48;;;5.20;;
65096;SDS011;51686;46.758;4.356;2022-12-07T13:12:20;10.50;;;5.10;;
65096;SDS011;51686;46.758;4.356;2022-12-07T13:15:30;11.38;;;5.70;;
65096;SDS011;51686;46.758;4.356;2022-12-07T13:18:23;11.48;;;5.53;;
65096;SDS011;51686;46.758;4.356;2022-12-07T13:23:59;11.25;;;5.50;;
65096;SDS011;51686;46.758;4.356;2022-12-07T13:26:47;10.38;;;5.15;;
65096;SDS011;51686;46.758;4.356;2022-12-07T13:29:41;11.32;;;5.60;;
65096;SDS011;51686;46.758;4.356;2022-12-07T13:32:32;11.45;;;5.25;;
65096;SDS011;51686;46.758;4.356;2022-12-07T13:38:27;11.65;;;5.55;;
65096;SDS011;51686;46.758;4.356;2022-12-07T13:41:17;10.73;;;5.53;;
65096;SDS011;51686;46.758;4.356;2022-12-07T13:44:18;11.02;;;5.43;;
65096;SDS011;51686;46.758;4.356;2022-12-07T13:47:06;11.18;;;5.38;;
65096;SDS011;51686;46.758;4.356;2022-12-07T13:50:26;11.63;;;5.30;;
65096;SDS011;51686;46.758;4.356;2022-12-07T13:53:25;10.85;;;5.00;;
65096;SDS011;51686;46.758;4.356;2022-12-07T13:56:24;10.45;;;5.03;;
65096;SDS011;51686;46.758;4.356;2022-12-07T13:59:30;11.35;;;5.13;;
65096;SDS011;51686;46.758;4.356;2022-12-07T14:02:27;11.23;;;5.35;;
65096;SDS011;51686;46.758;4.356;2022-12-07T14:05:25;11.20;;;5.88;;
65096;SDS011;51686;46.758;4.356;2022-12-07T14:11:01;12.00;;;5.82;;
65096;SDS011;51686;46.758;4.356;2022-12-07T14:16:41;10.77;;;5.22;;
65096;SDS011;51686;46.758;4.356;2022-12-07T14:19:40;11.65;;;5.53;;
65096;SDS011;51686;46.758;4.356;2022-12-07T14:22:39;10.23;;;5.50;;
65096;SDS011;51686;46.758;4.356;2022-12-07T14:25:26;11.23;;;5.80;;
65096;SDS011;51686;46.758;4.356;2022-12-07T14:28:29;11.15;;;4.97;;
65096;SDS011;51686;46.758;4.356;2022-12-07T14:31:21;11.87;;;5.30;;
65096;SDS011;51686;46.758;4.356;2022-12-07T14:34:22;11.93;;;5.82;;
65096;SDS011;51686;46.758;4.356;2022-12-07T14:37:12;13.13;;;6.18;;
65096;SDS011;51686;46.758;4.356;2022-12-07T14:40:02;11.32;;;5.70;;
65096;SDS011;51686;46.758;4.356;2022-12-07T14:43:08;11.85;;;5.45;;
65096;SDS011;51686;46.758;4.356;2022-12-07T14:45:59;11.45;;;5.80;;
65096;SDS011;51686;46.758;4.356;2022-12-07T14:48:53;10.90;;;5.15;;
65096;SDS011;51686;46.758;4.356;2022-12-07T14:52:13;10.82;;;5.55;;
65096;SDS011;51686;46.758;4.356;2022-12-07T14:55:27;12.40;;;5.78;;
65096;SDS011;51686;46.758;4.356;2022-12-07T14:58:18;10.52;;;5.20;;
65096;SDS011;51686;46.758;4.356;2022-12-07T15:01:08;10.93;;;5.65;;
65096;SDS011;51686;46.758;4.356;2022-12-07T15:04:02;12.18;;;5.45;;
65096;SDS011;51686;46.758;4.356;2022-12-07T15:06:59;11.25;;;5.57;;
65096;SDS011;51686;46.758;4.356;2022-12-07T15:09:53;11.10;;;5.88;;
65096;SDS011;51686;46.758;4.356;2022-12-07T15:12:47;10.95;;;5.82;;
65096;SDS011;51686;46.758;4.356;2022-12-07T15:15:42;11.07;;;5.60;;
65096;SDS011;51686;46.758;4.356;2022-12-07T15:18:48;11.75;;;5.53;;
65096;SDS011;51686;46.758;4.356;2022-12-07T15:22:01;10.70;;;5.55;;
65096;SDS011;51686;46.758;4.356;2022-12-07T15:24:58;10.95;;;4.72;;
65096;SDS011;51686;46.758;4.356;2022-12-07T15:27:46;11.85;;;6.18;;
65096;SDS011;51686;46.758;4.356;2022-12-07T15:30:33;10.18;;;5.18;;
65096;SDS011;51686;46.758;4.356;2022-12-07T15:34:08;9.93;;;4.68;;
65096;SDS011;51686;46.758;4.356;2022-12-07T15:39:44;10.30;;;4.68;;
65096;SDS011;51686;46.758;4.356;2022-12-07T15:42:31;9.70;;;4.65;;
65096;SDS011;51686;46.758;4.356;2022-12-07T15:45:18;10.77;;;5.55;;
65096;SDS011;51686;46.758;4.356;2022-12-07T15:48:21;10.75;;;4.90;;
65096;SDS011;51686;46.758;4.356;2022-12-07T15:51:14;10.48;;;4.85;;
65096;SDS011;51686;46.758;4.356;2022-12-07T15:54:20;9.73;;;4.97;;
65096;SDS011;51686;46.758;4.356;2022-12-07T15:57:14;10.63;;;5.25;;
65096;SDS011;51686;46.758;4.356;2022-12-07T16:00:09;11.15;;;5.20;;
65096;SDS011;51686;46.758;4.356;2022-12-07T16:02:56;9.70;;;4.80;;
65096;SDS011;51686;46.758;4.356;2022-12-07T16:05:53;11.18;;;5.38;;
65096;SDS011;51686;46.758;4.356;2022-12-07T16:08:46;10.95;;;5.55;;
65096;SDS011;51686;46.758;4.356;2022-12-07T16:15:40;9.88;;;5.05;;
65096;SDS011;51686;46.758;4.356;2022-12-07T16:18:30;10.52;;;5.18;;
65096;SDS011;51686;46.758;4.356;2022-12-07T16:21:29;10.73;;;5.22;;
65096;SDS011;51686;46.758;4.356;2022-12-07T16:24:28;10.27;;;5.15;;
65096;SDS011;51686;46.758;4.356;2022-12-07T16:27:21;10.70;;;5.30;;
65096;SDS011;51686;46.758;4.356;2022-12-07T16:30:21;9.80;;;4.90;;
65096;SDS011;51686;46.758;4.356;2022-12-07T16:33:28;10.38;;;4.95;;
65096;SDS011;51686;46.758;4.356;2022-12-07T16:36:21;10.48;;;5.20;;
65096;SDS011;51686;46.758;4.356;2022-12-07T16:39:31;11.13;;;5.45;;
65096;SDS011;51686;46.758;4.356;2022-12-07T16:42:22;10.77;;;5.45;;
65096;SDS011;51686;46.758;4.356;2022-12-07T16:45:09;10.07;;;5.07;;
65096;SDS011;51686;46.758;4.356;2022-12-07T16:48:06;11.35;;;5.30;;
65096;SDS011;51686;46.758;4.356;2022-12-07T16:50:54;11.43;;;5.38;;
65096;SDS011;51686;46.758;4.356;2022-12-07T16:53:47;10.90;;;5.50;;
65096;SDS011;51686;46.758;4.356;2022-12-07T16:56:37;11.60;;;5.82;;
65096;SDS011;51686;46.758;4.356;2022-12-07T16:59:24;11.63;;;5.72;;
65096;SDS011;51686;46.758;4.356;2022-12-07T17:02:14;9.77;;;4.97;;
65096;SDS011;51686;46.758;4.356;2022-12-07T17:05:01;10.60;;;5.07;;
65096;SDS011;51686;46.758;4.356;2022-12-07T17:07:50;11.13;;;5.57;;
65096;SDS011;51686;46.758;4.356;2022-12-07T17:10:38;12.70;;;6.00;;
65096;SDS011;51686;46.758;4.356;2022-12-07T17:13:28;11.77;;;5.35;;
65096;SDS011;51686;46.758;4.356;2022-12-07T17:16:35;11.57;;;5.47;;
65096;SDS011;51686;46.758;4.356;2022-12-07T17:19:27;10.27;;;4.97;;
65096;SDS011;51686;46.758;4.356;2022-12-07T17:22:25;10.68;;;5.15;;
65096;SDS011;51686;46.758;4.356;2022-12-07T17:25:32;10.70;;;5.25;;
65096;SDS011;51686;46.758;4.356;2022-12-07T17:28:31;11.13;;;5.28;;
65096;SDS011;51686;46.758;4.356;2022-12-07T17:31:21;10.77;;;5.07;;
65096;SDS011;51686;46.758;4.356;2022-12-07T17:34:42;10.27;;;5.15;;
65096;SDS011;51686;46.758;4.356;2022-12-07T17:37:44;11.18;;;5.13;;
65096;SDS011;51686;46.758;4.356;2022-12-07T17:40:36;10.68;;;5.28;;
65096;SDS011;51686;46.758;4.356;2022-12-07T17:43:36;10.52;;;4.80;;
65096;SDS011;51686;46.758;4.356;2022-12-07T17:46:27;11.02;;;5.43;;
65096;SDS011;51686;46.758;4.356;2022-12-07T17:53:35;12.02;;;5.80;;
65096;SDS011;51686;46.758;4.356;2022-12-07T17:56:59;10.65;;;4.88;;
65096;SDS011;51686;46.758;4.356;2022-12-07T18:00:18;10.82;;;5.10;;
65096;SDS011;51686;46.758;4.356;2022-12-07T18:07:38;11.15;;;5.20;;
65096;SDS011;51686;46.758;4.356;2022-12-07T18:14:44;10.32;;;5.07;;
65096;SDS011;51686;46.758;4.356;2022-12-07T18:17:45;10.55;;;4.88;;
65096;SDS011;51686;46.758;4.356;2022-12-07T18:20:47;9.57;;;4.68;;
65096;SDS011;51686;46.758;4.356;2022-12-07T18:27:48;10.43;;;5.13;;
65096;SDS011;51686;46.758;4.356;2022-12-07T18:31:08;10.57;;;5.00;;
65096;SDS011;51686;46.758;4.356;2022-12-07T18:34:21;10.25;;;4.80;;
65096;SDS011;51686;46.758;4.356;2022-12-07T18:37:40;11.02;;;5.05;;
65096;SDS011;51686;46.758;4.356;2022-12-07T18:40:43;10.75;;;5.22;;
65096;SDS011;51686;46.758;4.356;2022-12-07T18:43:54;11.25;;;5.28;;
65096;SDS011;51686;46.758;4.356;2022-12-07T18:50:35;9.88;;;4.63;;
65096;SDS011;51686;46.758;4.356;2022-12-07T18:54:11;10.20;;;4.95;;
65096;SDS011;51686;46.758;4.356;2022-12-07T19:02:19;9.88;;;4.90;;
65096;SDS011;51686;46.758;4.356;2022-12-07T19:05:36;9.73;;;4.63;;
65096;SDS011;51686;46.758;4.356;2022-12-07T19:17:23;11.57;;;5.10;;
65096;SDS011;51686;46.758;4.356;2022-12-07T19:34:17;10.38;;;5.20;;
65096;SDS011;51686;46.758;4.356;2022-12-07T19:38:09;10.43;;;5.22;;
65096;SDS011;51686;46.758;4.356;2022-12-07T19:50:35;10.85;;;4.85;;
65096;SDS011;51686;46.758;4.356;2022-12-07T19:56:52;10.55;;;5.45;;
65096;SDS011;51686;46.758;4.356;2022-12-07T20:00:37;10.43;;;5.00;;
65096;SDS011;51686;46.758;4.356;2022-12-07T20:12:52;11.40;;;5.63;;
65096;SDS011;51686;46.758;4.356;2022-12-07T20:33:19;11.73;;;5.60;;
65096;SDS011;51686;46.758;4.356;2022-12-07T20:45:31;11.15;;;6.15;;
65096;SDS011;51686;46.758;4.356;2022-12-07T21:04:49;12.57;;;5.63;;
65096;SDS011;51686;46.758;4.356;2022-12-07T21:37:02;11.60;;;6.05;;
65096;SDS011;51686;46.758;4.356;2022-12-07T21:53:12;11.32;;;5.75;;
65096;SDS011;51686;46.758;4.356;2022-12-07T21:57:01;12.20;;;6.20;;
65096;SDS011;51686;46.758;4.356;2022-12-07T22:11:52;10.95;;;5.78;;
65096;SDS011;51686;46.758;4.356;2022-12-07T22:15:10;11.85;;;6.10;;
65096;SDS011;51686;46.758;4.356;2022-12-07T22:18:22;12.20;;;5.90;;
65096;SDS011;51686;46.758;4.356;2022-12-07T22:21:40;11.23;;;5.72;;
65096;SDS011;51686;46.758;4.356;2022-12-07T22:24:46;12.65;;;5.93;;
65096;SDS011;51686;46.758;4.356;2022-12-07T22:28:11;12.65;;;5.90;;
65096;SDS011;51686;46.758;4.356;2022-12-07T22:31:26;11.38;;;5.85;;
65096;SDS011;51686;46.758;4.356;2022-12-07T22:34:49;11.82;;;5.55;;
65096;SDS011;51686;46.758;4.356;2022-12-07T22:37:48;10.60;;;5.55;;
65096;SDS011;51686;46.758;4.356;2022-12-07T22:41:23;11.05;;;5.53;;
65096;SDS011;51686;46.758;4.356;2022-12-07T22:44:22;11.55;;;5.60;;
65096;SDS011;51686;46.758;4.356;2022-12-07T22:47:20;12.00;;;6.03;;
65096;SDS011;51686;46.758;4.356;2022-12-07T22:50:10;12.80;;;6.55;;
65096;SDS011;51686;46.758;4.356;2022-12-07T22:53:09;11.57;;;6.00;;
65096;SDS011;51686;46.758;4.356;2022-12-07T22:55:58;12.68;;;6.15;;
65096;SDS011;51686;46.758;4.356;2022-12-07T22:59:22;10.70;;;5.78;;
65096;SDS011;51686;46.758;4.356;2022-12-07T23:02:16;11.30;;;5.70;;
65096;SDS011;51686;46.758;4.356;2022-12-07T23:05:18;11.85;;;5.90;;
65096;SDS011;51686;46.758;4.356;2022-12-07T23:08:37;12.00;;;6.20;;
65096;SDS011;51686;46.758;4.356;2022-12-07T23:11:52;12.40;;;6.53;;
65096;SDS011;51686;46.758;4.356;2022-12-07T23:15:14;11.85;;;6.13;;
65096;SDS011;51686;46.758;4.356;2022-12-07T23:18:10;11.98;;;6.40;;
65096;SDS011;51686;46.758;4.356;2022-12-07T23:21:17;12.13;;;6.22;;
65096;SDS011;51686;46.758;4.356;2022-12-07T23:24:32;12.43;;;6.50;;
65096;SDS011;51686;46.758;4.356;2022-12-07T23:27:44;12.73;;;6.50;;
65096;SDS011;51686;46.758;4.356;2022-12-07T23:30:37;12.35;;;6.32;;
65096;SDS011;51686;46.758;4.356;2022-12-07T23:33:33;12.55;;;6.30;;
65096;SDS011;51686;46.758;4.356;2022-12-07T23:36:25;14.05;;;6.88;;
65096;SDS011;51686;46.758;4.356;2022-12-07T23:39:22;12.68;;;6.75;;
65096;SDS011;51686;46.758;4.356;2022-12-07T23:42:29;12.18;;;6.68;;
65096;SDS011;51686;46.758;4.356;2022-12-07T23:45:30;12.55;;;6.53;;
65096;SDS011;51686;46.758;4.356;2022-12-07T23:49:04;11.65;;;6.60;;
65096;SDS011;51686;46.758;4.356;2022-12-07T23:51:55;12.60;;;6.18;;
65096;SDS011;51686;46.758;4.356;2022-12-07T23:55:11;12.40;;;6.53;;
65096;SDS011;51686;46.758;4.356;2022-12-07T23:58:03;12.57;;;6.32;;
